الجوف, Saudi Arabia

05:16 AM AST on êèنêè 25, 2016 (GMT +0300)
Al Jouf | | Change Station

Elev 2260 ft 29.79 °N, 40.10 °E | Updated 16 minutes ago

Clear
صافية
79 °F
Feels Like 79 °F
N
6
ريح متغير ريح from WNW

هذا اليوم
High -- | Low -- °F
--% Chance of Precip.
Yesterday
High -- | Low -- °F
Precip. -- في
الضغط 29.68 في
وضوح الرؤية -9999.0 أميال
سحابات
نقطة الندى 54 °F
الرطوبة 42%
Rainfall 0.00 في
عمق الثلج Not available.
5:34 AM 7:16 PM
الأحدب الأخير, 71% visible
METAR OESK 250200Z 30005KT CAVOK 26/12 Q1005 NOSIG
الضغط 29.68 في
وضوح الرؤية -9999.0 أميال
سحابات
نقطة الندى 54 °F
الرطوبة 42%
Rainfall 0.00 في
عمق الثلج Not available.
5:34 AM 7:16 PM
الأحدب الأخير, 71% visible
METAR OESK 250200Z 30005KT CAVOK 26/12 Q1005 NOSIG

10-Day Weather Forecast

No radar image for this location.
×

Almanac

علم الفلك

Jul. 25, 2016 Rise Set
Actual Time
Civil Twilight
Nautical Twilight
Astronomical Twilight
قمر
Length Of Visible Light
طول الیوم
Tomorrow will be .
, % of the Moon is Illuminated

Today's Extremes

Country Highs Country Lows

Community

WunderPhotos

Upload Photos

1,927,243 photos uploaded!

WunderBlog® & News

Nearby

جودة الهواء

  جودة الهواء AQ Index Pollutant
Not available.

عمق الثلج

Station Depth Elevation

Earthquake Activity

City Distance Mag. Time & Date
Minimum magnitude displayed is 2.5.

Coastal Water Temperatures

مكان درجات الحرارة

Stations

Nearby Weather Stations

Station Location الحرارة رياح باردة نقطة الندى الرطوبة ريح Precip. Elev تحديث Type